Time;durP1;ratioP1;P1;durP2;ratioP2;P2;SDS_P1;SDS_P2;PMS_P1;PMS_P2;Temp;Humidity;BMP_temperature;BMP_pressure;BME280_temperature;BME280_humidity;BME280_pressure;Samples;Min_cycle;Max_cycle;Signal;HPM_P1;HPM_P2
2020/12/16 00:00:13;;;;;;;70.22;39.75;;;;;;;8.84;69.44;94508.66;5000545;28;20371;-78
2020/12/16 00:02:40;;;;;;;65.65;36.08;;;;;;;8.82;69.15;94513.38;4999152;28;20068;-78
2020/12/16 00:05:08;;;;;;;70.70;38.78;;;;;;;8.71;69.61;94517.03;4997832;28;20041;-78
2020/12/16 00:07:33;;;;;;;70.13;36.83;;;;;;;8.60;69.91;94504.91;5003478;28;20703;-78
2020/12/16 00:09:59;;;;;;;71.57;37.15;;;;;;;8.61;70.07;94501.19;4998688;28;20125;-78
2020/12/16 00:12:25;;;;;;;72.40;39.05;;;;;;;8.59;70.38;94505.94;4990593;28;20498;-78
2020/12/16 00:14:51;;;;;;;71.78;38.95;;;;;;;8.63;70.16;94507.00;4990876;28;20431;-78
2020/12/16 00:17:17;;;;;;;74.28;38.22;;;;;;;8.76;69.87;94511.78;5000979;28;20037;-78
2020/12/16 00:19:42;;;;;;;74.70;39.33;;;;;;;8.72;69.94;94502.81;5001633;28;20026;-78
2020/12/16 00:22:09;;;;;;;80.60;41.58;;;;;;;8.79;69.88;94508.66;5021365;28;20060;-78
2020/12/16 00:24:34;;;;;;;80.00;43.45;;;;;;;8.83;69.78;94511.53;5004451;28;20052;-78
2020/12/16 00:27:00;;;;;;;72.53;39.00;;;;;;;8.81;69.46;94505.72;5000035;28;20046;-78
2020/12/16 00:29:25;;;;;;;67.85;35.70;;;;;;;8.65;69.27;94502.25;4991127;28;20803;-78
2020/12/16 00:31:51;;;;;;;68.30;35.03;;;;;;;8.51;69.71;94501.94;5003421;28;20038;-78
2020/12/16 00:34:17;;;;;;;80.43;40.53;;;;;;;8.45;70.18;94512.75;5005253;28;20006;-78
2020/12/16 00:36:42;;;;;;;67.28;35.40;;;;;;;8.40;70.44;94507.44;5004717;28;20152;-78
2020/12/16 00:39:10;;;;;;;73.45;36.88;;;;;;;8.40;70.78;94504.81;5004711;28;20128;-78
2020/12/16 00:41:36;;;;;;;68.07;30.02;;;;;;;8.34;70.83;94508.47;5002963;28;20128;-78
2020/12/16 00:44:03;;;;;;;59.80;29.42;;;;;;;8.15;70.93;94501.00;5002683;28;20115;-78
2020/12/16 00:46:28;;;;;;;66.25;30.75;;;;;;;7.98;71.64;94492.47;5005959;28;20120;-78
2020/12/16 00:48:54;;;;;;;60.53;32.00;;;;;;;7.98;71.82;94491.66;5004272;28;20137;-78
2020/12/16 00:51:20;;;;;;;88.28;35.35;;;;;;;8.01;71.94;94499.06;5002982;28;20034;-78
2020/12/16 00:53:45;;;;;;;125.18;38.08;;;;;;;7.94;72.39;94504.56;4994680;28;20487;-78
2020/12/16 00:56:11;;;;;;;80.53;36.83;;;;;;;7.88;72.63;94497.66;4987962;28;20485;-78
2020/12/16 00:58:37;;;;;;;84.40;34.10;;;;;;;7.89;72.73;94498.47;5007394;28;20046;-78
2020/12/16 01:01:07;;;;;;;73.65;35.40;;;;;;;7.94;72.76;94494.03;5002890;28;20594;-78
2020/12/16 01:03:32;;;;;;;81.25;36.92;;;;;;;7.97;72.93;94493.50;5017363;28;20038;-78
2020/12/16 01:05:59;;;;;;;74.05;34.65;;;;;;;8.00;72.51;94487.75;5003980;28;20060;-78
2020/12/16 01:08:24;;;;;;;83.28;36.13;;;;;;;8.02;72.96;94493.53;5003973;28;20045;-78
2020/12/16 01:10:50;;;;;;;77.97;37.15;;;;;;;8.16;72.74;94499.91;5003405;28;20025;-76
2020/12/16 01:13:16;;;;;;;97.13;41.47;;;;;;;8.12;72.32;94490.94;5004993;28;20030;-78
2020/12/16 01:15:41;;;;;;;92.43;39.28;;;;;;;8.23;71.73;94500.50;5002441;28;20040;-78
2020/12/16 01:18:07;;;;;;;97.25;38.50;;;;;;;8.21;72.06;94499.94;5004345;28;20049;-78
2020/12/16 01:20:33;;;;;;;84.15;35.28;;;;;;;8.28;71.78;94490.00;4995249;28;20052;-78
2020/12/16 01:22:58;;;;;;;86.00;37.92;;;;;;;8.36;71.62;94495.81;4985170;28;20026;-78
2020/12/16 01:25:24;;;;;;;80.38;35.03;;;;;;;8.31;71.39;94478.16;5006880;28;20033;-78
2020/12/16 01:27:57;;;;;;;87.07;33.67;;;;;;;8.36;71.14;94487.91;5003030;28;20425;-78
2020/12/16 01:30:23;;;;;;;59.88;31.55;;;;;;;8.32;71.34;94481.59;5017034;28;20085;-78
2020/12/16 01:32:54;;;;;;;59.88;29.48;;;;;;;8.36;71.19;94477.38;5002317;28;20119;-78
2020/12/16 01:35:20;;;;;;;87.00;34.80;;;;;;;8.40;71.22;94484.53;5001596;28;20038;-78
2020/12/16 01:37:45;;;;;;;83.45;31.67;;;;;;;8.44;71.11;94484.81;5003404;28;20502;-78
2020/12/16 01:40:13;;;;;;;82.75;32.92;;;;;;;8.43;71.13;94478.75;5004927;28;20502;-78
2020/12/16 01:42:39;;;;;;;88.25;32.03;;;;;;;8.42;70.89;94487.69;5001638;28;20049;-78
2020/12/16 01:45:11;;;;;;;77.68;31.80;;;;;;;8.44;71.19;94490.88;5003834;28;20038;-78
2020/12/16 01:47:36;;;;;;;91.82;31.65;;;;;;;8.42;70.88;94486.91;5000919;28;20041;-78
2020/12/16 01:50:04;;;;;;;96.90;30.33;;;;;;;8.48;71.11;94488.50;5003651;28;20391;-78
2020/12/16 01:52:31;;;;;;;75.00;29.83;;;;;;;8.46;70.77;94480.06;5004583;28;20028;-78
2020/12/16 01:54:57;;;;;;;82.78;30.10;;;;;;;8.48;71.18;94491.16;5001672;28;20073;-78
2020/12/16 01:57:24;;;;;;;81.78;28.77;;;;;;;8.42;70.97;94484.25;5001281;28;20121;-78
2020/12/16 01:59:51;;;;;;;86.97;29.13;;;;;;;8.34;71.22;94482.13;4992451;28;20916;-78
2020/12/16 02:02:19;;;;;;;100.65;27.52;;;;;;;8.35;71.24;94483.72;4997674;28;20037;-78
2020/12/16 02:04:47;;;;;;;89.70;30.65;;;;;;;8.40;71.32;94483.75;4981788;28;20089;-78
2020/12/16 02:07:14;;;;;;;76.22;29.45;;;;;;;8.40;70.92;94483.75;5006460;28;20475;-78
2020/12/16 02:09:43;;;;;;;59.97;28.13;;;;;;;8.38;70.96;94480.56;5002192;28;20054;-78
2020/12/16 02:12:31;;;;;;;70.15;26.73;;;;;;;8.40;70.57;94475.84;5003395;28;20071;-78
2020/12/16 02:14:57;;;;;;;70.03;27.50;;;;;;;8.37;70.72;94484.25;4991950;28;20077;-78
2020/12/16 02:17:23;;;;;;;73.97;26.30;;;;;;;8.39;70.79;94482.97;4988984;28;20428;-78
2020/12/16 02:19:53;;;;;;;67.68;25.70;;;;;;;8.36;70.51;94475.56;5001720;28;20424;-78
2020/12/16 02:22:19;;;;;;;111.65;29.25;;;;;;;8.27;70.94;94467.31;5002430;28;20033;-78
2020/12/16 02:25:01;;;;;;;101.28;26.67;;;;;;;8.33;71.15;94485.81;5001947;28;20038;-78
2020/12/16 02:27:27;;;;;;;68.50;25.70;;;;;;;8.22;71.38;94485.75;5002487;28;20045;-78
2020/12/16 02:29:54;;;;;;;74.88;26.85;;;;;;;8.19;71.35;94494.16;5003396;28;20042;-78
2020/12/16 02:32:23;;;;;;;75.13;27.48;;;;;;;8.16;71.26;94486.75;5000513;28;20046;-79
2020/12/16 02:34:49;;;;;;;69.63;29.67;;;;;;;8.22;71.22;94484.94;5002021;28;20026;-78
2020/12/16 02:37:14;;;;;;;72.88;33.13;;;;;;;8.21;70.94;94478.88;5006056;28;20528;-78
2020/12/16 02:39:40;;;;;;;89.68;29.58;;;;;;;8.22;71.07;94485.75;5000232;28;20042;-78
2020/12/16 02:42:09;;;;;;;85.28;30.45;;;;;;;8.24;70.69;94485.50;5017264;28;20049;-77
2020/12/16 02:44:35;;;;;;;58.53;27.25;;;;;;;8.22;70.58;94475.22;5002132;28;20060;-78
2020/12/16 02:47:03;;;;;;;53.78;25.73;;;;;;;8.31;70.21;94480.03;5014593;28;20041;-78
2020/12/16 02:49:28;;;;;;;53.55;23.90;;;;;;;8.33;70.05;94480.56;5005658;28;20037;-78
2020/12/16 02:51:54;;;;;;;51.15;23.75;;;;;;;8.33;70.14;94491.09;5000821;28;20046;-78
2020/12/16 02:54:21;;;;;;;48.55;23.13;;;;;;;8.26;69.95;94486.81;5014409;28;20112;-78
2020/12/16 02:56:51;;;;;;;42.35;22.05;;;;;;;8.26;69.79;94496.53;5003221;28;20085;-78
2020/12/16 02:59:20;;;;;;;49.45;22.02;;;;;;;8.22;69.71;94501.53;5001282;28;20100;-78
2020/12/16 03:01:48;;;;;;;47.88;21.60;;;;;;;8.20;69.76;94494.97;5016370;28;20071;-77
2020/12/16 03:04:14;;;;;;;46.13;21.58;;;;;;;8.15;69.79;94492.31;5004744;28;20130;-78
2020/12/16 03:06:40;;;;;;;46.17;19.55;;;;;;;8.14;69.50;94485.44;5001445;28;20025;-78
2020/12/16 03:09:05;;;;;;;40.88;19.17;;;;;;;8.07;69.62;94493.56;4991004;28;20698;-78
2020/12/16 03:11:31;;;;;;;48.85;22.08;;;;;;;8.06;69.52;94494.59;4989012;28;20099;-78
2020/12/16 03:13:56;;;;;;;37.40;19.00;;;;;;;8.11;69.39;94502.53;4999941;28;20382;-77
2020/12/16 03:16:22;;;;;;;38.35;19.45;;;;;;;8.04;69.26;94491.44;5005408;28;20034;-77
2020/12/16 03:18:48;;;;;;;38.83;18.20;;;;;;;8.05;69.32;94500.94;4999479;28;20041;-78
2020/12/16 03:21:24;;;;;;;42.92;19.15;;;;;;;8.04;69.38;94501.97;5002248;28;20471;-77
2020/12/16 03:23:51;;;;;;;36.22;17.23;;;;;;;7.97;69.54;94501.41;5015967;28;20624;-78
2020/12/16 03:26:16;;;;;;;47.20;20.05;;;;;;;7.99;69.95;94504.59;5001633;28;20046;-78
2020/12/16 03:28:42;;;;;;;45.72;19.83;;;;;;;7.93;69.26;94502.16;5002537;28;20068;-78
2020/12/16 03:31:08;;;;;;;43.85;20.75;;;;;;;7.89;69.67;94499.25;5003151;28;20030;-78
2020/12/16 03:33:34;;;;;;;47.72;21.48;;;;;;;7.86;69.76;94493.72;4998550;28;20041;-78
2020/12/16 03:35:59;;;;;;;38.03;19.67;;;;;;;7.88;70.15;94508.19;5001846;28;20038;-78
2020/12/16 03:38:25;;;;;;;46.55;22.23;;;;;;;7.80;69.90;94482.38;4995531;28;20041;-78
2020/12/16 03:40:50;;;;;;;37.38;19.48;;;;;;;7.88;69.79;94502.94;4981582;28;20019;-78
2020/12/16 03:43:16;;;;;;;43.63;19.10;;;;;;;7.81;69.96;94497.13;5018801;28;20052;-78
2020/12/16 03:45:41;;;;;;;42.97;17.33;;;;;;;7.84;70.00;94501.84;5000502;28;20502;-78
2020/12/16 03:48:06;;;;;;;40.25;18.00;;;;;;;7.83;70.13;94510.78;5000119;28;20515;-77
2020/12/16 03:50:32;;;;;;;75.32;20.83;;;;;;;7.78;70.38;94510.75;5000152;28;20034;-78
2020/12/16 03:52:57;;;;;;;40.05;19.48;;;;;;;7.78;70.45;94518.66;5000803;28;20501;-78
2020/12/16 03:55:23;;;;;;;42.95;15.80;;;;;;;7.68;70.41;94510.69;5008052;28;20025;-78
2020/12/16 03:57:48;;;;;;;33.40;16.48;;;;;;;7.66;70.40;94516.22;4985042;28;20038;-78
2020/12/16 04:00:14;;;;;;;34.88;16.13;;;;;;;7.66;70.43;94508.34;4998653;28;20104;-78
2020/12/16 04:02:40;;;;;;;36.50;16.90;;;;;;;7.75;70.17;94519.16;5003390;28;20041;-78
2020/12/16 04:05:06;;;;;;;45.80;20.70;;;;;;;7.71;70.36;94513.63;5003400;28;20137;-78
2020/12/16 04:07:31;;;;;;;53.28;21.85;;;;;;;7.77;70.21;94517.09;5007755;28;20033;-78
2020/12/16 04:09:58;;;;;;;39.33;19.33;;;;;;;7.77;70.21;94524.97;5004286;28;20885;-78
2020/12/16 04:12:24;;;;;;;35.53;18.33;;;;;;;7.72;70.16;94511.78;5003568;28;20583;-78
2020/12/16 04:14:49;;;;;;;31.98;16.17;;;;;;;7.76;70.00;94520.75;5004422;28;20049;-78
2020/12/16 04:17:15;;;;;;;41.60;17.92;;;;;;;7.76;69.66;94520.75;5004254;28;20038;-77
2020/12/16 04:19:41;;;;;;;37.78;18.90;;;;;;;7.85;69.52;94529.75;5005236;28;20104;-78
2020/12/16 04:22:06;;;;;;;30.85;15.43;;;;;;;7.80;69.60;94522.63;5005933;28;20034;-78
2020/12/16 04:24:32;;;;;;;37.25;16.33;;;;;;;7.80;69.35;94527.09;5003847;28;20561;-78
2020/12/16 04:26:57;;;;;;;34.47;16.65;;;;;;;7.72;69.62;94522.31;5005599;28;20124;-78
2020/12/16 04:29:23;;;;;;;30.77;16.80;;;;;;;7.75;69.88;94538.38;5001977;28;20052;-78
2020/12/16 04:31:51;;;;;;;33.10;15.93;;;;;;;7.78;70.08;94532.59;5000841;28;20505;-78
2020/12/16 04:34:17;;;;;;;93.15;23.30;;;;;;;7.74;69.95;94528.09;4987014;28;20042;-78
2020/12/16 04:36:49;;;;;;;37.88;18.63;;;;;;;7.78;70.00;94537.06;5000479;28;20065;-78
2020/12/16 04:39:17;;;;;;;30.42;15.93;;;;;;;7.75;69.32;94545.47;5005507;28;20045;-78
2020/12/16 04:41:43;;;;;;;33.50;16.50;;;;;;;7.72;69.63;94546.75;5004185;28;20057;-78
2020/12/16 04:44:14;;;;;;;27.40;13.70;;;;;;;7.64;69.07;94549.06;5002084;28;20498;-78
2020/12/16 04:46:41;;;;;;;26.15;14.65;;;;;;;7.67;69.18;94559.09;5004601;28;20030;-78
2020/12/16 04:49:07;;;;;;;25.83;13.73;;;;;;;7.69;69.06;94554.38;4982966;28;20145;-78
2020/12/16 04:51:35;;;;;;;25.17;14.07;;;;;;;7.77;68.59;94565.22;4999525;28;20044;-78
2020/12/16 04:54:01;;;;;;;23.60;12.00;;;;;;;7.58;68.13;94555.31;5005537;28;20411;-78
2020/12/16 04:56:29;;;;;;;23.75;13.23;;;;;;;7.66;68.28;94563.56;5004955;28;20046;-78
2020/12/16 04:58:55;;;;;;;23.77;13.15;;;;;;;7.56;68.30;94565.31;5001803;28;20053;-78
2020/12/16 05:01:20;;;;;;;23.20;12.95;;;;;;;7.54;68.24;94562.13;5007318;28;20071;-78
2020/12/16 05:03:46;;;;;;;26.80;14.93;;;;;;;7.64;68.76;94570.13;5001193;28;20065;-78
2020/12/16 05:06:11;;;;;;;22.50;13.52;;;;;;;7.68;69.10;94571.19;5003255;28;20045;-78
2020/12/16 05:08:37;;;;;;;26.13;14.38;;;;;;;7.70;68.56;94574.38;5002662;28;20526;-78
2020/12/16 05:11:04;;;;;;;27.17;14.75;;;;;;;7.70;68.67;94569.13;5004075;28;20045;-78
2020/12/16 05:13:30;;;;;;;26.17;14.15;;;;;;;7.70;69.02;94579.66;5006622;28;20013;-77
2020/12/16 05:16:01;;;;;;;26.88;14.40;;;;;;;7.70;69.04;94584.91;5003625;28;20449;-78
2020/12/16 05:18:27;;;;;;;22.65;12.85;;;;;;;7.64;68.95;94576.16;5003215;28;20038;-78
2020/12/16 05:20:54;;;;;;;24.70;13.13;;;;;;;7.64;68.68;94573.53;5003954;28;20053;-78
2020/12/16 05:23:28;;;;;;;18.48;10.73;;;;;;;7.64;68.65;94578.00;5001352;28;20090;-77
2020/12/16 05:25:59;;;;;;;19.92;11.57;;;;;;;7.69;68.37;94593.84;4996567;28;20060;-78
2020/12/16 05:28:30;;;;;;;19.73;12.45;;;;;;;7.63;68.59;94584.31;5006294;28;20059;-78
2020/12/16 05:30:57;;;;;;;24.50;12.65;;;;;;;7.73;68.29;94589.66;4990294;28;20031;-78
2020/12/16 05:33:23;;;;;;;23.98;13.50;;;;;;;7.77;68.16;94596.78;4996422;28;20060;-78
2020/12/16 05:35:53;;;;;;;18.30;11.18;;;;;;;7.78;67.80;94598.38;5003190;28;20046;-78
2020/12/16 05:38:20;;;;;;;21.92;12.20;;;;;;;7.74;67.32;94599.13;5001589;28;20391;-78
2020/12/16 05:40:46;;;;;;;17.55;11.40;;;;;;;7.74;67.57;94599.13;5002758;28;20481;-78
2020/12/16 05:43:29;;;;;;;20.30;12.05;;;;;;;7.79;67.24;94604.44;5003795;28;20037;-78
2020/12/16 05:45:55;;;;;;;22.17;13.68;;;;;;;7.70;67.40;94595.44;5002911;28;20038;-78
2020/12/16 05:48:28;;;;;;;20.20;12.60;;;;;;;7.71;67.35;94610.97;5001231;28;20502;-78
2020/12/16 05:50:56;;;;;;;17.80;11.80;;;;;;;7.77;67.39;94607.31;5018237;28;20135;-78
2020/12/16 05:53:23;;;;;;;20.85;12.93;;;;;;;7.76;67.59;94597.84;5001926;28;20077;-78
2020/12/16 05:55:59;;;;;;;21.88;12.10;;;;;;;7.83;67.62;94605.53;5001963;28;20033;-78
2020/12/16 05:58:28;;;;;;;20.85;11.70;;;;;;;7.87;67.47;94605.84;5004966;28;20038;-78
2020/12/16 06:01:05;;;;;;;21.95;14.02;;;;;;;7.86;67.83;94604.25;5002118;28;20068;-78
2020/12/16 06:03:35;;;;;;;26.13;12.50;;;;;;;7.87;67.58;94605.84;4975916;28;20047;-78
2020/12/16 06:06:03;;;;;;;17.48;11.40;;;;;;;7.82;67.49;94604.72;4995124;28;20132;-78
2020/12/16 06:08:33;;;;;;;21.02;11.68;;;;;;;7.83;67.68;94610.78;4995262;28;20129;-77
2020/12/16 06:10:58;;;;;;;23.67;11.82;;;;;;;7.82;67.91;94603.94;4981974;28;20098;-78
2020/12/16 06:13:24;;;;;;;22.58;13.32;;;;;;;7.86;68.15;94620.84;4986092;28;20467;-77
2020/12/16 06:15:56;;;;;;;17.15;10.57;;;;;;;7.87;68.20;94627.66;5000247;28;20100;-78
2020/12/16 06:18:30;;;;;;;25.02;13.13;;;;;;;7.87;68.00;94622.38;4996124;28;20426;-78
2020/12/16 06:20:57;;;;;;;22.25;12.93;;;;;;;7.87;68.01;94626.88;5002071;28;20068;-79
2020/12/16 06:23:28;;;;;;;26.23;14.27;;;;;;;7.89;68.12;94635.31;5005404;28;20177;-80
2020/12/16 06:25:56;;;;;;;29.30;16.08;;;;;;;7.87;68.21;94632.16;5004821;28;20112;-80
2020/12/16 06:28:22;;;;;;;28.80;15.98;;;;;;;7.92;68.23;94638.22;5007152;28;20116;-81
2020/12/16 06:30:53;;;;;;;22.83;14.07;;;;;;;7.93;68.26;94646.91;5004704;28;20042;-79
2020/12/16 06:33:41;;;;;;;25.05;14.88;;;;;;;7.94;68.08;94644.03;5004273;28;20042;-79
2020/12/16 06:36:09;;;;;;;25.45;14.07;;;;;;;7.97;68.09;94642.72;5004696;28;20137;-79
2020/12/16 06:38:47;;;;;;;26.02;14.77;;;;;;;7.95;67.82;94634.31;5005677;28;20060;-79
2020/12/16 06:41:18;;;;;;;26.95;15.15;;;;;;;7.99;68.08;94640.66;5001188;28;20056;-78
2020/12/16 06:43:45;;;;;;;28.27;17.52;;;;;;;7.94;67.99;94627.44;5003529;28;20033;-79
2020/12/16 06:46:32;;;;;;;30.70;18.52;;;;;;;8.03;67.88;94637.25;4985390;28;20033;-80
2020/12/16 06:49:09;;;;;;;28.42;15.02;;;;;;;7.98;68.01;94639.84;5002714;28;20049;-79
2020/12/16 06:51:46;;;;;;;23.13;13.65;;;;;;;7.88;68.14;94633.72;4986276;28;20162;-80
2020/12/16 06:54:13;;;;;;;23.20;12.65;;;;;;;7.92;68.23;94642.69;4996591;28;20042;-80
2020/12/16 06:56:40;;;;;;;25.27;14.50;;;;;;;7.87;68.15;94643.44;5005201;28;20045;-80
2020/12/16 06:59:07;;;;;;;23.92;14.75;;;;;;;7.87;68.11;94645.31;5002990;28;20125;-80
2020/12/16 07:01:33;;;;;;;22.30;13.68;;;;;;;7.79;68.47;94636.03;5005362;28;20018;-79
2020/12/16 07:03:59;;;;;;;28.48;15.90;;;;;;;7.81;68.45;94633.94;4996840;28;20400;-80
2020/12/16 07:06:27;;;;;;;25.05;15.70;;;;;;;7.89;68.45;94644.00;4999926;28;20332;-77
2020/12/16 07:09:22;;;;;;;28.98;15.27;;;;;;;7.88;68.23;94649.50;5004069;28;20136;-77
2020/12/16 07:11:54;;;;;;;24.50;14.57;;;;;;;7.82;67.91;94646.03;5015887;28;20038;-77
2020/12/16 07:14:31;;;;;;;26.20;14.23;;;;;;;7.86;68.15;94644.50;5000973;28;20124;-77
2020/12/16 07:17:10;;;;;;;23.90;14.48;;;;;;;7.90;67.86;94650.84;5002267;28;20018;-77
2020/12/16 07:19:37;;;;;;;30.05;14.15;;;;;;;7.84;67.68;94643.97;5006320;28;20018;-77
2020/12/16 07:22:22;;;;;;;22.13;13.48;;;;;;;7.82;67.60;94638.13;5001340;28;20050;-79
2020/12/16 07:24:49;;;;;;;26.65;14.55;;;;;;;7.87;67.28;94638.19;4984805;28;20482;-79
2020/12/16 07:27:23;;;;;;;27.42;15.23;;;;;;;7.96;67.63;94643.81;5008887;28;20034;-79
2020/12/16 07:29:58;;;;;;;26.87;15.77;;;;;;;7.96;67.58;94635.91;4993179;28;20050;-79
2020/12/16 07:32:25;;;;;;;28.15;14.50;;;;;;;7.97;67.90;94632.19;4987442;28;20129;-79
2020/12/16 07:34:56;;;;;;;37.83;20.77;;;;;;;8.05;67.41;94645.72;4988323;28;20080;-79
2020/12/16 07:37:27;;;;;;;31.60;18.63;;;;;;;8.16;67.14;94651.84;5009517;28;20519;-79
2020/12/16 07:39:58;;;;;;;25.45;15.43;;;;;;;8.21;66.75;94654.50;4989194;28;20069;-79
2020/12/16 07:42:29;;;;;;;30.33;18.27;;;;;;;8.24;66.54;94654.81;4999628;28;20132;-79
2020/12/16 07:44:59;;;;;;;34.50;20.05;;;;;;;8.30;66.53;94652.25;5006093;28;20061;-79
2020/12/16 07:47:26;;;;;;;30.65;18.80;;;;;;;8.22;66.58;94635.81;5005625;28;20037;-79
2020/12/16 07:49:52;;;;;;;34.75;20.35;;;;;;;8.30;66.67;94646.97;5008151;28;20105;-79
2020/12/16 07:52:26;;;;;;;32.63;18.92;;;;;;;8.36;66.52;94648.56;5009087;28;20474;-79
2020/12/16 07:54:51;;;;;;;37.78;20.15;;;;;;;8.41;66.06;94659.16;5022023;28;20132;-79
2020/12/16 07:57:26;;;;;;;29.63;17.17;;;;;;;8.38;66.46;94654.41;5008299;28;20121;-79
2020/12/16 07:59:52;;;;;;;25.75;15.60;;;;;;;8.41;66.25;94657.31;5019895;28;20442;-79
2020/12/16 08:02:19;;;;;;;26.80;16.17;;;;;;;8.42;66.05;94666.00;4991760;28;20050;-79
2020/12/16 08:04:57;;;;;;;34.15;18.60;;;;;;;8.47;65.67;94672.09;5021188;28;20116;-78
2020/12/16 08:07:23;;;;;;;28.65;16.48;;;;;;;8.46;66.01;94667.09;4990231;28;20097;-78
2020/12/16 08:09:58;;;;;;;31.48;19.58;;;;;;;8.51;66.15;94675.00;5004691;28;20510;-79
2020/12/16 08:12:27;;;;;;;27.77;16.92;;;;;;;8.51;66.41;94669.75;5002784;28;20082;-79
2020/12/16 08:15:07;;;;;;;24.50;17.27;;;;;;;8.53;66.33;94673.72;5004731;28;20054;-79
2020/12/16 08:17:37;;;;;;;27.80;18.23;;;;;;;8.54;66.06;94664.00;5006776;28;20038;-79
2020/12/16 08:20:19;;;;;;;27.70;18.92;;;;;;;8.53;66.25;94668.47;5007777;28;20045;-79
2020/12/16 08:22:47;;;;;;;30.77;19.85;;;;;;;8.47;66.27;94666.03;5005579;28;20124;-79
2020/12/16 08:25:14;;;;;;;30.35;20.13;;;;;;;8.51;66.20;94667.13;5008021;28;20022;-79
2020/12/16 08:27:48;;;;;;;32.67;19.85;;;;;;;8.42;66.29;94652.84;5006196;28;20579;-79
2020/12/16 08:30:19;;;;;;;27.08;16.45;;;;;;;8.45;66.04;94668.94;5023999;28;20502;-79
2020/12/16 08:33:08;;;;;;;27.13;16.73;;;;;;;8.40;66.42;94673.38;5004689;28;20120;-79
2020/12/16 08:35:59;;;;;;;28.70;16.60;;;;;;;8.39;66.27;94674.44;5006223;28;20046;-78
2020/12/16 08:38:31;;;;;;;23.77;17.67;;;;;;;8.28;66.57;94658.53;4993390;28;20053;-79
2020/12/16 08:40:58;;;;;;;28.45;18.70;;;;;;;8.23;66.96;94673.50;5017482;28;20041;-78
2020/12/16 08:43:32;;;;;;;33.88;20.35;;;;;;;8.23;66.64;94661.13;5009275;28;20080;-79
2020/12/16 08:46:09;;;;;;;34.33;20.88;;;;;;;8.32;66.88;94660.66;5004780;28;20050;-78
2020/12/16 08:49:01;;;;;;;31.55;19.98;;;;;;;8.41;66.60;94670.47;5005283;28;20582;-79
2020/12/16 08:51:38;;;;;;;33.25;20.05;;;;;;;8.44;66.55;94664.72;5006220;28;20422;-79
2020/12/16 08:54:11;;;;;;;33.95;21.88;;;;;;;8.41;66.46;94667.03;4991447;28;20049;-79
2020/12/16 08:56:40;;;;;;;37.08;21.80;;;;;;;8.46;66.00;94656.53;4992903;28;20052;-79
2020/12/16 08:59:10;;;;;;;31.02;21.40;;;;;;;8.43;66.29;94657.84;5003062;28;20116;-78
2020/12/16 09:01:39;;;;;;;27.50;18.98;;;;;;;8.35;67.03;94649.66;5007908;28;20379;-79
2020/12/16 09:04:06;;;;;;;36.33;24.63;;;;;;;8.37;66.24;94650.16;5004456;28;20538;-78
2020/12/16 09:06:32;;;;;;;37.63;24.90;;;;;;;8.30;66.26;94646.97;5005512;28;20049;-79
2020/12/16 09:08:57;;;;;;;36.33;25.92;;;;;;;8.28;66.47;94649.81;5006337;28;20081;-79
2020/12/16 09:11:23;;;;;;;52.08;28.20;;;;;;;8.31;66.87;94649.34;5004747;28;20072;-78
2020/12/16 09:13:49;;;;;;;50.53;30.05;;;;;;;8.38;66.82;94644.66;5004273;28;20122;-79
2020/12/16 09:16:20;;;;;;;45.47;28.13;;;;;;;8.39;66.97;94640.97;5008001;28;20041;-79
2020/12/16 09:18:47;;;;;;;60.13;34.00;;;;;;;8.42;66.91;94639.66;5005348;28;20045;-79
2020/12/16 09:21:17;;;;;;;49.38;28.95;;;;;;;8.45;66.81;94644.44;5005922;28;20038;-79
2020/12/16 09:23:44;;;;;;;41.40;26.10;;;;;;;8.45;66.69;94633.91;5004999;28;20545;-78
2020/12/16 09:26:09;;;;;;;45.67;25.58;;;;;;;8.52;66.49;94639.72;5005023;28;20041;-79
2020/12/16 09:28:38;;;;;;;38.85;25.17;;;;;;;8.59;66.35;94629.78;5007203;28;20025;-79
2020/12/16 09:31:11;;;;;;;33.08;22.88;;;;;;;8.68;66.33;94633.50;5003661;28;20034;-79
2020/12/16 09:33:37;;;;;;;36.95;24.88;;;;;;;8.70;66.32;94629.56;5018377;28;20034;-80
2020/12/16 09:36:02;;;;;;;35.03;23.63;;;;;;;8.62;66.36;94634.53;5005164;28;20077;-79
2020/12/16 09:38:28;;;;;;;39.03;24.63;;;;;;;8.61;66.20;94636.34;4998043;28;20046;-79
2020/12/16 09:41:00;;;;;;;40.47;25.73;;;;;;;8.54;66.11;94621.84;5002393;28;20471;-79
2020/12/16 09:43:37;;;;;;;41.17;25.33;;;;;;;8.65;66.22;94631.34;5007373;28;20028;-79
2020/12/16 09:46:16;;;;;;;39.80;26.10;;;;;;;8.62;66.45;94629.25;4994772;28;20124;-79
2020/12/16 09:48:42;;;;;;;36.53;24.88;;;;;;;8.55;66.30;94618.94;5004146;28;20046;-79
2020/12/16 09:51:12;;;;;;;42.42;24.80;;;;;;;8.50;65.93;94615.50;5005279;28;20064;-79
2020/12/16 09:53:39;;;;;;;44.45;27.48;;;;;;;8.55;66.15;94613.66;5003033;28;20036;-79
2020/12/16 09:56:04;;;;;;;37.15;25.08;;;;;;;8.62;65.67;94618.72;5004380;28;20111;-79
2020/12/16 09:58:38;;;;;;;47.13;28.80;;;;;;;8.64;66.36;94622.69;5006155;28;20450;-79
2020/12/16 10:01:05;;;;;;;57.15;31.08;;;;;;;8.67;66.22;94616.09;4999136;28;20461;-79
2020/12/16 10:03:31;;;;;;;42.50;26.08;;;;;;;8.74;66.05;94621.94;5003174;28;20068;-79
2020/12/16 10:05:56;;;;;;;52.38;29.20;;;;;;;8.74;66.14;94616.69;5002492;28;20049;-79
2020/12/16 10:08:22;;;;;;;43.97;29.85;;;;;;;8.63;66.38;94615.03;4997901;28;20111;-79
2020/12/16 10:10:47;;;;;;;48.13;28.50;;;;;;;8.67;66.54;94616.09;4986220;28;20032;-80
2020/12/16 10:13:14;;;;;;;45.45;29.20;;;;;;;8.63;66.45;94612.41;5004333;28;20899;-79
2020/12/16 10:15:40;;;;;;;45.90;28.45;;;;;;;8.66;66.72;94615.31;5002782;28;20046;-80
2020/12/16 10:18:05;;;;;;;41.85;27.38;;;;;;;8.63;66.37;94604.50;4993894;28;20060;-79
2020/12/16 10:20:31;;;;;;;48.08;28.23;;;;;;;8.69;65.92;94601.63;4990216;28;20034;-79
2020/12/16 10:22:56;;;;;;;50.13;28.85;;;;;;;8.69;66.25;94598.19;4999056;28;20113;-79
2020/12/16 10:25:22;;;;;;;45.97;30.50;;;;;;;8.76;66.48;94604.03;4986854;28;20032;-79
2020/12/16 10:27:48;;;;;;;71.07;39.92;;;;;;;8.77;66.23;94600.34;5000409;28;20084;-79
2020/12/16 10:30:14;;;;;;;51.25;31.10;;;;;;;8.85;66.24;94607.75;5005226;28;20038;-79
2020/12/16 10:32:39;;;;;;;58.22;32.08;;;;;;;8.85;66.44;94602.47;5002434;28;20499;-79
2020/12/16 10:35:08;;;;;;;49.85;30.58;;;;;;;8.86;66.16;94598.78;5002641;28;20033;-79
2020/12/16 10:37:35;;;;;;;50.83;30.48;;;;;;;8.83;65.90;94593.25;5022085;28;20026;-78
2020/12/16 10:40:00;;;;;;;47.15;31.23;;;;;;;8.81;65.86;94590.88;5004146;28;20490;-78
2020/12/16 10:42:26;;;;;;;49.28;31.70;;;;;;;8.84;65.72;94593.00;4988626;28;20042;-78
2020/12/16 10:44:51;;;;;;;56.10;32.92;;;;;;;8.89;65.92;94585.13;4984449;28;20459;-79
2020/12/16 10:47:17;;;;;;;51.63;29.23;;;;;;;8.78;66.48;94582.69;4987929;28;20038;-79
2020/12/16 10:49:44;;;;;;;53.53;31.50;;;;;;;8.89;66.70;94582.47;5005454;28;20021;-78
2020/12/16 10:52:12;;;;;;;76.05;40.58;;;;;;;8.89;66.45;94577.22;5004317;28;20156;-79
2020/12/16 10:54:38;;;;;;;59.25;34.40;;;;;;;8.98;65.78;94580.13;5002747;28;20052;-79
2020/12/16 10:57:04;;;;;;;49.67;30.90;;;;;;;9.00;65.53;94570.91;5004747;28;20057;-79
2020/12/16 10:59:30;;;;;;;54.47;32.35;;;;;;;9.06;65.78;94574.34;5002101;28;20514;-79
2020/12/16 11:01:59;;;;;;;55.97;33.03;;;;;;;9.03;65.67;94567.75;5001714;28;20030;-79
2020/12/16 11:04:25;;;;;;;55.20;33.55;;;;;;;9.08;65.41;94570.41;5006232;28;20478;-78
2020/12/16 11:06:51;;;;;;;57.25;34.78;;;;;;;9.16;65.41;94574.38;5003591;28;20463;-79
2020/12/16 11:09:18;;;;;;;57.72;38.00;;;;;;;9.09;65.27;94561.41;5004997;28;20046;-79
2020/12/16 11:11:49;;;;;;;53.15;33.58;;;;;;;9.16;65.35;94571.72;5002539;28;20044;-79
2020/12/16 11:14:19;;;;;;;57.00;34.85;;;;;;;9.10;65.08;94573.56;5001658;28;20057;-79
2020/12/16 11:16:45;;;;;;;64.35;36.40;;;;;;;9.14;65.38;94574.63;5004335;28;20038;-79
2020/12/16 11:19:13;;;;;;;58.65;34.33;;;;;;;9.10;65.37;94564.84;5004069;28;20030;-79
2020/12/16 11:21:41;;;;;;;68.75;38.80;;;;;;;9.09;65.14;94561.41;5002159;28;20038;-79
2020/12/16 11:24:11;;;;;;;68.45;38.35;;;;;;;9.09;65.38;94555.34;5003023;28;20060;-79
2020/12/16 11:26:43;;;;;;;68.28;41.53;;;;;;;9.03;65.31;94554.56;4994312;28;20085;-79
2020/12/16 11:29:09;;;;;;;68.90;37.75;;;;;;;8.99;65.68;94558.75;4983780;28;20468;-79